Terminal Aerodrome Forecast
Issued by NWS

Home | Current Version | Previous Version | Text Only | Print | Product List | Glossary On
Versions: 1 2 3 4 5 6 7 8 9 10 11 12 13 14 15 16 17 18
846
FTUS43 KLSX 301727
TAFUIN
TAF
KUIN 301727Z 3018/0118 36012KT P6SM VCSH BKN018 OVC040
     FM302100 01011KT P6SM VCSH BKN040
     FM010100 36006KT P6SM BKN025
     FM010300 35006KT P6SM SCT007 OVC015
      TEMPO 0108/0112 BKN007
     FM011500 34006KT P6SM VCSH BKN025=

USA.gov is the U.S. government's official web portal to all federal, state and local government web resources and services.